sensor_id;sensor_type;location;lat;lon;timestamp;P1;durP1;ratioP1;P2;durP2;ratioP2
69906;SDS011;57190;47.918;8.112;2022-07-11T00:01:35;2.08;;;1.20;;
69906;SDS011;57190;47.918;8.112;2022-07-11T00:04:01;1.98;;;1.10;;
69906;SDS011;57190;47.918;8.112;2022-07-11T00:06:27;1.50;;;1.40;;
69906;SDS011;57190;47.918;8.112;2022-07-11T00:08:52;2.17;;;1.17;;
69906;SDS011;57190;47.918;8.112;2022-07-11T00:11:18;1.30;;;1.20;;
69906;SDS011;57190;47.918;8.112;2022-07-11T00:13:43;1.95;;;1.05;;
69906;SDS011;57190;47.918;8.112;2022-07-11T00:16:09;1.63;;;1.17;;
69906;SDS011;57190;47.918;8.112;2022-07-11T00:18:35;1.23;;;1.13;;
69906;SDS011;57190;47.918;8.112;2022-07-11T00:21:00;2.58;;;1.65;;
69906;SDS011;57190;47.918;8.112;2022-07-11T00:23:26;1.73;;;1.33;;
69906;SDS011;57190;47.918;8.112;2022-07-11T00:25:51;1.27;;;1.20;;
69906;SDS011;57190;47.918;8.112;2022-07-11T00:28:17;1.60;;;1.33;;
69906;SDS011;57190;47.918;8.112;2022-07-11T00:30:43;2.47;;;1.40;;
69906;SDS011;57190;47.918;8.112;2022-07-11T00:33:08;1.23;;;1.13;;
69906;SDS011;57190;47.918;8.112;2022-07-11T00:35:34;2.25;;;1.30;;
69906;SDS011;57190;47.918;8.112;2022-07-11T00:37:59;1.65;;;1.20;;
69906;SDS011;57190;47.918;8.112;2022-07-11T00:40:25;1.08;;;1.08;;
69906;SDS011;57190;47.918;8.112;2022-07-11T00:42:51;1.30;;;1.20;;
69906;SDS011;57190;47.918;8.112;2022-07-11T00:45:17;2.20;;;1.27;;
69906;SDS011;57190;47.918;8.112;2022-07-11T00:47:42;1.27;;;1.00;;
69906;SDS011;57190;47.918;8.112;2022-07-11T00:50:08;3.20;;;1.42;;
69906;SDS011;57190;47.918;8.112;2022-07-11T00:52:34;2.10;;;1.23;;
69906;SDS011;57190;47.918;8.112;2022-07-11T00:55:00;1.50;;;0.95;;
69906;SDS011;57190;47.918;8.112;2022-07-11T00:57:27;1.77;;;1.10;;
69906;SDS011;57190;47.918;8.112;2022-07-11T00:59:53;1.33;;;1.00;;
69906;SDS011;57190;47.918;8.112;2022-07-11T01:02:19;2.20;;;1.30;;
69906;SDS011;57190;47.918;8.112;2022-07-11T01:04:44;2.80;;;1.33;;
69906;SDS011;57190;47.918;8.112;2022-07-11T01:07:10;1.30;;;1.20;;
69906;SDS011;57190;47.918;8.112;2022-07-11T01:09:36;2.40;;;1.15;;
69906;SDS011;57190;47.918;8.112;2022-07-11T01:12:02;1.30;;;1.20;;
69906;SDS011;57190;47.918;8.112;2022-07-11T01:14:27;1.70;;;1.60;;
69906;SDS011;57190;47.918;8.112;2022-07-11T01:16:53;2.22;;;1.10;;
69906;SDS011;57190;47.918;8.112;2022-07-11T01:19:18;1.35;;;1.10;;
69906;SDS011;57190;47.918;8.112;2022-07-11T01:21:46;1.83;;;1.50;;
69906;SDS011;57190;47.918;8.112;2022-07-11T01:24:15;1.85;;;1.33;;
69906;SDS011;57190;47.918;8.112;2022-07-11T01:26:40;1.30;;;1.20;;
69906;SDS011;57190;47.918;8.112;2022-07-11T01:29:12;1.30;;;1.10;;
69906;SDS011;57190;47.918;8.112;2022-07-11T01:31:42;1.50;;;1.40;;
69906;SDS011;57190;47.918;8.112;2022-07-11T01:34:08;2.17;;;1.65;;
69906;SDS011;57190;47.918;8.112;2022-07-11T01:36:34;1.65;;;1.42;;
69906;SDS011;57190;47.918;8.112;2022-07-11T01:39:01;2.22;;;1.45;;
69906;SDS011;57190;47.918;8.112;2022-07-11T01:41:27;1.38;;;1.27;;
69906;SDS011;57190;47.918;8.112;2022-07-11T01:43:52;2.22;;;1.20;;
69906;SDS011;57190;47.918;8.112;2022-07-11T01:46:18;1.95;;;1.20;;
69906;SDS011;57190;47.918;8.112;2022-07-11T01:48:44;1.77;;;1.30;;
69906;SDS011;57190;47.918;8.112;2022-07-11T01:51:10;1.40;;;1.10;;
69906;SDS011;57190;47.918;8.112;2022-07-11T01:53:36;2.28;;;1.83;;
69906;SDS011;57190;47.918;8.112;2022-07-11T01:56:01;1.60;;;1.50;;
69906;SDS011;57190;47.918;8.112;2022-07-11T01:58:27;1.27;;;1.10;;
69906;SDS011;57190;47.918;8.112;2022-07-11T02:00:55;1.67;;;1.10;;
69906;SDS011;57190;47.918;8.112;2022-07-11T02:03:21;1.60;;;1.25;;
69906;SDS011;57190;47.918;8.112;2022-07-11T02:05:47;1.35;;;1.25;;
69906;SDS011;57190;47.918;8.112;2022-07-11T02:08:13;1.75;;;1.05;;
69906;SDS011;57190;47.918;8.112;2022-07-11T02:10:45;1.30;;;1.20;;
69906;SDS011;57190;47.918;8.112;2022-07-11T02:13:13;1.35;;;1.20;;
69906;SDS011;57190;47.918;8.112;2022-07-11T02:15:40;1.42;;;1.30;;
69906;SDS011;57190;47.918;8.112;2022-07-11T02:18:07;2.90;;;1.60;;
69906;SDS011;57190;47.918;8.112;2022-07-11T02:20:34;1.20;;;1.10;;
69906;SDS011;57190;47.918;8.112;2022-07-11T02:23:00;2.45;;;1.20;;
69906;SDS011;57190;47.918;8.112;2022-07-11T02:25:27;1.80;;;0.90;;
69906;SDS011;57190;47.918;8.112;2022-07-11T02:27:52;1.95;;;1.20;;
69906;SDS011;57190;47.918;8.112;2022-07-11T02:30:18;1.17;;;1.08;;
69906;SDS011;57190;47.918;8.112;2022-07-11T02:32:44;1.85;;;1.30;;
69906;SDS011;57190;47.918;8.112;2022-07-11T02:35:09;1.33;;;1.00;;
69906;SDS011;57190;47.918;8.112;2022-07-11T02:37:35;2.15;;;1.17;;
69906;SDS011;57190;47.918;8.112;2022-07-11T02:40:00;1.25;;;1.10;;
69906;SDS011;57190;47.918;8.112;2022-07-11T02:42:26;1.55;;;1.25;;
69906;SDS011;57190;47.918;8.112;2022-07-11T02:44:51;1.00;;;1.00;;
69906;SDS011;57190;47.918;8.112;2022-07-11T02:47:17;1.25;;;1.10;;
69906;SDS011;57190;47.918;8.112;2022-07-11T02:49:43;1.65;;;1.15;;
69906;SDS011;57190;47.918;8.112;2022-07-11T02:52:08;2.33;;;1.17;;
69906;SDS011;57190;47.918;8.112;2022-07-11T02:54:35;3.58;;;1.50;;
69906;SDS011;57190;47.918;8.112;2022-07-11T02:57:01;1.40;;;1.30;;
69906;SDS011;57190;47.918;8.112;2022-07-11T02:59:29;1.20;;;1.08;;
69906;SDS011;57190;47.918;8.112;2022-07-11T03:01:55;2.10;;;1.05;;
69906;SDS011;57190;47.918;8.112;2022-07-11T03:04:20;1.00;;;0.90;;
69906;SDS011;57190;47.918;8.112;2022-07-11T03:06:46;1.45;;;1.30;;
69906;SDS011;57190;47.918;8.112;2022-07-11T03:09:12;1.48;;;1.38;;
69906;SDS011;57190;47.918;8.112;2022-07-11T03:11:37;1.38;;;1.10;;
69906;SDS011;57190;47.918;8.112;2022-07-11T03:14:03;1.25;;;1.05;;
69906;SDS011;57190;47.918;8.112;2022-07-11T03:16:29;1.23;;;1.00;;
69906;SDS011;57190;47.918;8.112;2022-07-11T03:18:55;0.98;;;0.90;;
69906;SDS011;57190;47.918;8.112;2022-07-11T03:21:22;1.27;;;1.10;;
69906;SDS011;57190;47.918;8.112;2022-07-11T03:23:49;1.73;;;1.10;;
69906;SDS011;57190;47.918;8.112;2022-07-11T03:26:15;1.38;;;1.02;;
69906;SDS011;57190;47.918;8.112;2022-07-11T03:28:41;1.10;;;1.00;;
69906;SDS011;57190;47.918;8.112;2022-07-11T03:31:06;1.15;;;0.93;;
69906;SDS011;57190;47.918;8.112;2022-07-11T03:33:32;1.02;;;0.95;;
69906;SDS011;57190;47.918;8.112;2022-07-11T03:35:57;1.30;;;1.20;;
69906;SDS011;57190;47.918;8.112;2022-07-11T03:38:23;1.10;;;1.00;;
69906;SDS011;57190;47.918;8.112;2022-07-11T03:40:49;1.35;;;1.10;;
69906;SDS011;57190;47.918;8.112;2022-07-11T03:43:14;3.28;;;1.58;;
69906;SDS011;57190;47.918;8.112;2022-07-11T03:45:43;1.10;;;1.00;;
69906;SDS011;57190;47.918;8.112;2022-07-11T03:48:09;1.77;;;1.20;;
69906;SDS011;57190;47.918;8.112;2022-07-11T03:50:35;1.50;;;1.40;;
69906;SDS011;57190;47.918;8.112;2022-07-11T03:53:00;1.15;;;0.90;;
69906;SDS011;57190;47.918;8.112;2022-07-11T03:55:27;1.20;;;1.10;;
69906;SDS011;57190;47.918;8.112;2022-07-11T03:57:53;1.83;;;1.17;;
69906;SDS011;57190;47.918;8.112;2022-07-11T04:00:18;1.90;;;1.20;;
69906;SDS011;57190;47.918;8.112;2022-07-11T04:02:45;1.00;;;0.90;;
69906;SDS011;57190;47.918;8.112;2022-07-11T04:05:12;1.85;;;1.33;;
69906;SDS011;57190;47.918;8.112;2022-07-11T04:07:37;1.50;;;1.00;;
69906;SDS011;57190;47.918;8.112;2022-07-11T04:10:03;1.17;;;1.17;;
69906;SDS011;57190;47.918;8.112;2022-07-11T04:12:29;1.63;;;1.50;;
69906;SDS011;57190;47.918;8.112;2022-07-11T04:14:54;1.65;;;1.55;;
69906;SDS011;57190;47.918;8.112;2022-07-11T04:17:20;1.60;;;1.50;;
69906;SDS011;57190;47.918;8.112;2022-07-11T04:19:45;1.42;;;1.30;;
69906;SDS011;57190;47.918;8.112;2022-07-11T04:22:11;1.38;;;1.27;;
69906;SDS011;57190;47.918;8.112;2022-07-11T04:24:37;3.50;;;2.10;;
69906;SDS011;57190;47.918;8.112;2022-07-11T04:27:03;1.52;;;1.35;;
69906;SDS011;57190;47.918;8.112;2022-07-11T04:29:29;1.60;;;1.50;;
69906;SDS011;57190;47.918;8.112;2022-07-11T04:31:54;2.05;;;1.40;;
69906;SDS011;57190;47.918;8.112;2022-07-11T04:34:20;1.50;;;1.40;;
69906;SDS011;57190;47.918;8.112;2022-07-11T04:36:45;1.70;;;1.30;;
69906;SDS011;57190;47.918;8.112;2022-07-11T04:39:11;1.60;;;1.25;;
69906;SDS011;57190;47.918;8.112;2022-07-11T04:41:37;1.48;;;1.30;;
69906;SDS011;57190;47.918;8.112;2022-07-11T04:44:03;1.40;;;1.30;;
69906;SDS011;57190;47.918;8.112;2022-07-11T04:46:29;1.45;;;1.15;;
69906;SDS011;57190;47.918;8.112;2022-07-11T04:48:55;2.38;;;1.35;;
69906;SDS011;57190;47.918;8.112;2022-07-11T04:51:21;1.60;;;1.50;;
69906;SDS011;57190;47.918;8.112;2022-07-11T04:53:47;1.20;;;1.13;;
69906;SDS011;57190;47.918;8.112;2022-07-11T04:56:13;1.98;;;1.33;;
69906;SDS011;57190;47.918;8.112;2022-07-11T04:58:38;2.80;;;1.20;;
69906;SDS011;57190;47.918;8.112;2022-07-11T05:01:04;1.60;;;1.50;;
69906;SDS011;57190;47.918;8.112;2022-07-11T05:03:30;1.40;;;1.30;;
69906;SDS011;57190;47.918;8.112;2022-07-11T05:05:57;1.95;;;1.35;;
69906;SDS011;57190;47.918;8.112;2022-07-11T05:08:23;1.30;;;1.00;;
69906;SDS011;57190;47.918;8.112;2022-07-11T05:10:48;1.08;;;1.00;;
69906;SDS011;57190;47.918;8.112;2022-07-11T05:13:14;2.40;;;1.50;;
69906;SDS011;57190;47.918;8.112;2022-07-11T05:15:40;1.80;;;1.40;;
69906;SDS011;57190;47.918;8.112;2022-07-11T05:18:05;1.38;;;1.27;;
69906;SDS011;57190;47.918;8.112;2022-07-11T05:20:31;1.10;;;1.10;;
69906;SDS011;57190;47.918;8.112;2022-07-11T05:22:57;2.30;;;1.00;;
69906;SDS011;57190;47.918;8.112;2022-07-11T05:25:23;1.30;;;1.20;;
69906;SDS011;57190;47.918;8.112;2022-07-11T05:27:49;1.23;;;1.13;;
69906;SDS011;57190;47.918;8.112;2022-07-11T05:30:14;1.23;;;1.10;;
69906;SDS011;57190;47.918;8.112;2022-07-11T05:32:40;2.15;;;1.67;;
69906;SDS011;57190;47.918;8.112;2022-07-11T05:35:06;2.05;;;1.40;;
69906;SDS011;57190;47.918;8.112;2022-07-11T05:37:32;1.33;;;1.30;;
69906;SDS011;57190;47.918;8.112;2022-07-11T05:39:57;2.00;;;1.20;;
69906;SDS011;57190;47.918;8.112;2022-07-11T05:42:23;2.58;;;1.40;;
69906;SDS011;57190;47.918;8.112;2022-07-11T05:44:49;1.63;;;1.00;;
69906;SDS011;57190;47.918;8.112;2022-07-11T05:47:15;1.42;;;1.00;;
69906;SDS011;57190;47.918;8.112;2022-07-11T05:49:41;1.75;;;1.25;;
69906;SDS011;57190;47.918;8.112;2022-07-11T05:52:07;1.65;;;1.08;;
69906;SDS011;57190;47.918;8.112;2022-07-11T05:54:33;1.77;;;1.10;;
69906;SDS011;57190;47.918;8.112;2022-07-11T05:56:58;1.13;;;1.00;;
69906;SDS011;57190;47.918;8.112;2022-07-11T05:59:26;1.10;;;1.00;;
69906;SDS011;57190;47.918;8.112;2022-07-11T06:01:52;1.23;;;0.82;;
69906;SDS011;57190;47.918;8.112;2022-07-11T06:04:17;1.17;;;0.90;;
69906;SDS011;57190;47.918;8.112;2022-07-11T06:06:43;3.13;;;0.98;;
69906;SDS011;57190;47.918;8.112;2022-07-11T06:09:08;0.95;;;0.80;;
69906;SDS011;57190;47.918;8.112;2022-07-11T06:11:34;1.00;;;0.90;;
69906;SDS011;57190;47.918;8.112;2022-07-11T06:14:00;1.38;;;1.00;;
69906;SDS011;57190;47.918;8.112;2022-07-11T06:16:25;1.15;;;1.00;;
69906;SDS011;57190;47.918;8.112;2022-07-11T06:18:51;0.90;;;0.90;;
69906;SDS011;57190;47.918;8.112;2022-07-11T06:21:17;1.25;;;1.02;;
69906;SDS011;57190;47.918;8.112;2022-07-11T06:23:43;1.08;;;0.90;;
69906;SDS011;57190;47.918;8.112;2022-07-11T06:26:09;1.33;;;1.23;;
69906;SDS011;57190;47.918;8.112;2022-07-11T06:28:37;1.27;;;1.10;;
69906;SDS011;57190;47.918;8.112;2022-07-11T06:31:06;0.60;;;0.60;;
69906;SDS011;57190;47.918;8.112;2022-07-11T06:33:32;0.75;;;0.75;;
69906;SDS011;57190;47.918;8.112;2022-07-11T06:35:58;0.70;;;0.70;;
69906;SDS011;57190;47.918;8.112;2022-07-11T06:38:24;1.05;;;0.80;;
69906;SDS011;57190;47.918;8.112;2022-07-11T06:40:49;1.08;;;0.80;;
69906;SDS011;57190;47.918;8.112;2022-07-11T06:43:15;0.85;;;0.80;;
69906;SDS011;57190;47.918;8.112;2022-07-11T06:45:40;1.25;;;1.17;;
69906;SDS011;57190;47.918;8.112;2022-07-11T06:48:06;0.70;;;0.70;;
69906;SDS011;57190;47.918;8.112;2022-07-11T06:50:32;1.98;;;0.73;;
69906;SDS011;57190;47.918;8.112;2022-07-11T06:52:58;0.82;;;0.73;;
69906;SDS011;57190;47.918;8.112;2022-07-11T06:55:24;0.98;;;0.60;;
69906;SDS011;57190;47.918;8.112;2022-07-11T06:57:49;0.88;;;0.80;;
69906;SDS011;57190;47.918;8.112;2022-07-11T07:00:15;0.80;;;0.75;;
69906;SDS011;57190;47.918;8.112;2022-07-11T07:02:42;0.52;;;0.52;;
69906;SDS011;57190;47.918;8.112;2022-07-11T07:05:08;0.50;;;0.50;;
69906;SDS011;57190;47.918;8.112;2022-07-11T07:07:34;0.60;;;0.60;;
69906;SDS011;57190;47.918;8.112;2022-07-11T07:10:00;0.57;;;0.57;;
69906;SDS011;57190;47.918;8.112;2022-07-11T07:12:25;0.50;;;0.50;;
69906;SDS011;57190;47.918;8.112;2022-07-11T07:14:51;1.63;;;0.60;;
69906;SDS011;57190;47.918;8.112;2022-07-11T07:17:16;0.60;;;0.50;;
69906;SDS011;57190;47.918;8.112;2022-07-11T07:19:42;0.65;;;0.60;;
69906;SDS011;57190;47.918;8.112;2022-07-11T07:22:08;0.50;;;0.50;;
69906;SDS011;57190;47.918;8.112;2022-07-11T07:24:37;0.73;;;0.60;;
69906;SDS011;57190;47.918;8.112;2022-07-11T07:27:03;0.60;;;0.60;;
69906;SDS011;57190;47.918;8.112;2022-07-11T07:29:29;0.40;;;0.40;;
69906;SDS011;57190;47.918;8.112;2022-07-11T07:31:55;0.50;;;0.50;;
69906;SDS011;57190;47.918;8.112;2022-07-11T07:34:20;0.80;;;0.70;;
69906;SDS011;57190;47.918;8.112;2022-07-11T07:36:46;0.50;;;0.50;;
69906;SDS011;57190;47.918;8.112;2022-07-11T07:39:12;0.60;;;0.60;;
69906;SDS011;57190;47.918;8.112;2022-07-11T07:41:38;0.88;;;0.60;;
69906;SDS011;57190;47.918;8.112;2022-07-11T07:44:03;0.63;;;0.63;;
69906;SDS011;57190;47.918;8.112;2022-07-11T07:46:29;1.65;;;0.68;;
69906;SDS011;57190;47.918;8.112;2022-07-11T07:48:54;0.68;;;0.68;;
69906;SDS011;57190;47.918;8.112;2022-07-11T07:51:20;0.50;;;0.50;;
69906;SDS011;57190;47.918;8.112;2022-07-11T07:53:46;0.50;;;0.50;;
69906;SDS011;57190;47.918;8.112;2022-07-11T07:56:12;0.88;;;0.50;;
69906;SDS011;57190;47.918;8.112;2022-07-11T07:58:38;0.60;;;0.60;;
69906;SDS011;57190;47.918;8.112;2022-07-11T08:01:04;0.50;;;0.50;;
69906;SDS011;57190;47.918;8.112;2022-07-11T08:03:49;1.67;;;0.50;;
69906;SDS011;57190;47.918;8.112;2022-07-11T08:06:15;0.40;;;0.40;;
69906;SDS011;57190;47.918;8.112;2022-07-11T08:08:40;0.55;;;0.55;;
69906;SDS011;57190;47.918;8.112;2022-07-11T08:11:06;0.95;;;0.52;;
69906;SDS011;57190;47.918;8.112;2022-07-11T08:13:32;2.03;;;0.52;;
69906;SDS011;57190;47.918;8.112;2022-07-11T08:15:57;0.52;;;0.52;;
69906;SDS011;57190;47.918;8.112;2022-07-11T08:18:23;0.40;;;0.40;;
69906;SDS011;57190;47.918;8.112;2022-07-11T08:20:48;0.60;;;0.60;;
69906;SDS011;57190;47.918;8.112;2022-07-11T08:23:14;0.50;;;0.50;;
69906;SDS011;57190;47.918;8.112;2022-07-11T08:25:40;0.68;;;0.60;;
69906;SDS011;57190;47.918;8.112;2022-07-11T08:28:05;1.13;;;0.60;;
69906;SDS011;57190;47.918;8.112;2022-07-11T08:30:31;0.90;;;0.60;;
69906;SDS011;57190;47.918;8.112;2022-07-11T08:32:57;0.50;;;0.50;;
69906;SDS011;57190;47.918;8.112;2022-07-11T08:35:23;0.70;;;0.60;;
69906;SDS011;57190;47.918;8.112;2022-07-11T08:37:49;0.47;;;0.47;;
69906;SDS011;57190;47.918;8.112;2022-07-11T08:40:14;0.57;;;0.50;;
69906;SDS011;57190;47.918;8.112;2022-07-11T08:42:41;0.50;;;0.50;;
69906;SDS011;57190;47.918;8.112;2022-07-11T08:45:13;0.73;;;0.60;;
69906;SDS011;57190;47.918;8.112;2022-07-11T08:47:39;0.95;;;0.57;;
69906;SDS011;57190;47.918;8.112;2022-07-11T08:50:06;0.90;;;0.45;;
69906;SDS011;57190;47.918;8.112;2022-07-11T08:52:32;0.50;;;0.50;;
69906;SDS011;57190;47.918;8.112;2022-07-11T08:54:58;0.60;;;0.60;;
69906;SDS011;57190;47.918;8.112;2022-07-11T08:57:24;0.68;;;0.68;;
69906;SDS011;57190;47.918;8.112;2022-07-11T08:59:52;0.50;;;0.50;;
69906;SDS011;57190;47.918;8.112;2022-07-11T09:02:20;1.75;;;0.65;;
69906;SDS011;57190;47.918;8.112;2022-07-11T09:04:46;2.22;;;0.68;;
69906;SDS011;57190;47.918;8.112;2022-07-11T09:07:12;1.33;;;0.70;;
69906;SDS011;57190;47.918;8.112;2022-07-11T09:09:38;0.43;;;0.43;;
69906;SDS011;57190;47.918;8.112;2022-07-11T09:12:09;0.50;;;0.50;;
69906;SDS011;57190;47.918;8.112;2022-07-11T09:14:37;0.82;;;0.63;;
69906;SDS011;57190;47.918;8.112;2022-07-11T09:17:03;0.75;;;0.60;;
69906;SDS011;57190;47.918;8.112;2022-07-11T09:19:31;0.93;;;0.52;;
69906;SDS011;57190;47.918;8.112;2022-07-11T09:22:08;0.52;;;0.52;;
69906;SDS011;57190;47.918;8.112;2022-07-11T09:25:01;0.40;;;0.40;;
69906;SDS011;57190;47.918;8.112;2022-07-11T09:28:01;0.50;;;0.50;;
69906;SDS011;57190;47.918;8.112;2022-07-11T09:30:39;0.88;;;0.63;;
69906;SDS011;57190;47.918;8.112;2022-07-11T09:33:05;0.60;;;0.55;;
69906;SDS011;57190;47.918;8.112;2022-07-11T09:35:35;0.60;;;0.60;;
69906;SDS011;57190;47.918;8.112;2022-07-11T09:38:09;0.50;;;0.50;;
69906;SDS011;57190;47.918;8.112;2022-07-11T09:40:37;0.60;;;0.60;;
69906;SDS011;57190;47.918;8.112;2022-07-11T09:43:03;0.60;;;0.57;;
69906;SDS011;57190;47.918;8.112;2022-07-11T09:45:30;0.57;;;0.50;;
69906;SDS011;57190;47.918;8.112;2022-07-11T09:47:58;0.65;;;0.60;;
69906;SDS011;57190;47.918;8.112;2022-07-11T09:50:26;0.50;;;0.50;;
69906;SDS011;57190;47.918;8.112;2022-07-11T09:55:32;1.40;;;0.70;;
69906;SDS011;57190;47.918;8.112;2022-07-11T09:58:03;0.75;;;0.70;;
69906;SDS011;57190;47.918;8.112;2022-07-11T10:00:30;0.65;;;0.65;;
69906;SDS011;57190;47.918;8.112;2022-07-11T10:02:57;1.27;;;0.75;;
69906;SDS011;57190;47.918;8.112;2022-07-11T10:05:24;1.80;;;0.80;;
69906;SDS011;57190;47.918;8.112;2022-07-11T10:07:50;0.70;;;0.70;;
69906;SDS011;57190;47.918;8.112;2022-07-11T10:10:16;1.02;;;0.70;;
69906;SDS011;57190;47.918;8.112;2022-07-11T10:12:42;0.57;;;0.57;;
69906;SDS011;57190;47.918;8.112;2022-07-11T10:15:10;0.52;;;0.52;;
69906;SDS011;57190;47.918;8.112;2022-07-11T10:20:58;0.90;;;0.90;;
69906;SDS011;57190;47.918;8.112;2022-07-11T10:26:08;0.73;;;0.68;;
69906;SDS011;57190;47.918;8.112;2022-07-11T10:31:22;0.50;;;0.50;;
69906;SDS011;57190;47.918;8.112;2022-07-11T10:34:04;1.00;;;0.60;;
69906;SDS011;57190;47.918;8.112;2022-07-11T10:36:39;0.88;;;0.63;;
69906;SDS011;57190;47.918;8.112;2022-07-11T10:39:19;0.47;;;0.47;;
69906;SDS011;57190;47.918;8.112;2022-07-11T10:41:50;0.60;;;0.50;;
69906;SDS011;57190;47.918;8.112;2022-07-11T10:44:16;0.50;;;0.50;;
69906;SDS011;57190;47.918;8.112;2022-07-11T10:46:42;0.55;;;0.55;;
69906;SDS011;57190;47.918;8.112;2022-07-11T11:00:21;0.75;;;0.70;;
69906;SDS011;57190;47.918;8.112;2022-07-11T11:14:33;0.60;;;0.43;;
69906;SDS011;57190;47.918;8.112;2022-07-11T11:16:52;0.50;;;0.45;;
69906;SDS011;57190;47.918;8.112;2022-07-11T11:22:15;1.10;;;0.70;;
69906;SDS011;57190;47.918;8.112;2022-07-11T11:24:42;0.52;;;0.52;;
69906;SDS011;57190;47.918;8.112;2022-07-11T11:27:18;0.60;;;0.60;;
69906;SDS011;57190;47.918;8.112;2022-07-11T11:29:49;0.47;;;0.40;;
69906;SDS011;57190;47.918;8.112;2022-07-11T11:32:15;1.20;;;0.60;;
69906;SDS011;57190;47.918;8.112;2022-07-11T11:34:41;0.65;;;0.60;;
69906;SDS011;57190;47.918;8.112;2022-07-11T11:37:08;0.88;;;0.47;;
69906;SDS011;57190;47.918;8.112;2022-07-11T11:39:34;0.70;;;0.60;;
69906;SDS011;57190;47.918;8.112;2022-07-11T11:42:10;0.85;;;0.50;;
69906;SDS011;57190;47.918;8.112;2022-07-11T11:47:14;0.47;;;0.47;;
69906;SDS011;57190;47.918;8.112;2022-07-11T11:49:44;0.45;;;0.45;;
69906;SDS011;57190;47.918;8.112;2022-07-11T11:52:10;0.90;;;0.80;;
69906;SDS011;57190;47.918;8.112;2022-07-11T11:54:37;0.50;;;0.50;;
69906;SDS011;57190;47.918;8.112;2022-07-11T11:57:08;1.30;;;0.50;;
69906;SDS011;57190;47.918;8.112;2022-07-11T11:59:38;2.28;;;1.40;;
69906;SDS011;57190;47.918;8.112;2022-07-11T12:02:05;0.65;;;0.47;;
69906;SDS011;57190;47.918;8.112;2022-07-11T12:04:31;0.60;;;0.60;;
69906;SDS011;57190;47.918;8.112;2022-07-11T12:07:01;0.40;;;0.40;;
69906;SDS011;57190;47.918;8.112;2022-07-11T12:09:28;0.50;;;0.50;;
69906;SDS011;57190;47.918;8.112;2022-07-11T12:12:16;0.50;;;0.50;;
69906;SDS011;57190;47.918;8.112;2022-07-11T12:15:02;1.20;;;0.50;;
69906;SDS011;57190;47.918;8.112;2022-07-11T12:17:29;0.73;;;0.70;;
69906;SDS011;57190;47.918;8.112;2022-07-11T12:19:55;0.70;;;0.70;;
69906;SDS011;57190;47.918;8.112;2022-07-11T12:22:21;0.75;;;0.75;;
69906;SDS011;57190;47.918;8.112;2022-07-11T12:24:47;1.23;;;0.70;;
69906;SDS011;57190;47.918;8.112;2022-07-11T12:27:21;0.65;;;0.65;;
69906;SDS011;57190;47.918;8.112;2022-07-11T12:29:50;1.40;;;0.60;;
69906;SDS011;57190;47.918;8.112;2022-07-11T12:32:16;0.60;;;0.60;;
69906;SDS011;57190;47.918;8.112;2022-07-11T12:34:44;0.70;;;0.60;;
69906;SDS011;57190;47.918;8.112;2022-07-11T12:37:15;0.77;;;0.50;;
69906;SDS011;57190;47.918;8.112;2022-07-11T12:39:54;0.50;;;0.50;;
69906;SDS011;57190;47.918;8.112;2022-07-11T12:42:30;0.63;;;0.60;;
69906;SDS011;57190;47.918;8.112;2022-07-11T12:44:58;2.72;;;0.55;;
69906;SDS011;57190;47.918;8.112;2022-07-11T12:47:32;4.47;;;0.50;;
69906;SDS011;57190;47.918;8.112;2022-07-11T12:50:06;0.52;;;0.52;;
69906;SDS011;57190;47.918;8.112;2022-07-11T12:52:48;1.27;;;0.60;;
69906;SDS011;57190;47.918;8.112;2022-07-11T12:55:34;0.55;;;0.50;;
69906;SDS011;57190;47.918;8.112;2022-07-11T12:58:02;0.50;;;0.50;;
69906;SDS011;57190;47.918;8.112;2022-07-11T13:00:43;1.23;;;0.60;;
69906;SDS011;57190;47.918;8.112;2022-07-11T13:03:31;0.80;;;0.80;;
69906;SDS011;57190;47.918;8.112;2022-07-11T13:05:59;0.93;;;0.70;;
69906;SDS011;57190;47.918;8.112;2022-07-11T13:08:28;0.70;;;0.57;;
69906;SDS011;57190;47.918;8.112;2022-07-11T13:11:13;1.13;;;0.70;;
69906;SDS011;57190;47.918;8.112;2022-07-11T13:13:43;0.57;;;0.40;;
69906;SDS011;57190;47.918;8.112;2022-07-11T13:16:14;0.82;;;0.68;;
69906;SDS011;57190;47.918;8.112;2022-07-11T13:18:40;0.70;;;0.70;;
69906;SDS011;57190;47.918;8.112;2022-07-11T13:21:06;0.80;;;0.80;;
69906;SDS011;57190;47.918;8.112;2022-07-11T13:23:35;0.80;;;0.80;;
69906;SDS011;57190;47.918;8.112;2022-07-11T13:26:02;1.63;;;0.57;;
69906;SDS011;57190;47.918;8.112;2022-07-11T13:28:28;0.70;;;0.70;;
69906;SDS011;57190;47.918;8.112;2022-07-11T13:30:54;1.27;;;0.52;;
69906;SDS011;57190;47.918;8.112;2022-07-11T13:33:20;0.60;;;0.60;;
69906;SDS011;57190;47.918;8.112;2022-07-11T13:35:46;0.60;;;0.60;;
69906;SDS011;57190;47.918;8.112;2022-07-11T13:38:12;0.55;;;0.55;;
69906;SDS011;57190;47.918;8.112;2022-07-11T13:40:39;0.52;;;0.52;;
69906;SDS011;57190;47.918;8.112;2022-07-11T13:43:05;0.50;;;0.50;;
69906;SDS011;57190;47.918;8.112;2022-07-11T13:45:31;2.58;;;0.60;;
69906;SDS011;57190;47.918;8.112;2022-07-11T13:47:56;0.73;;;0.73;;
69906;SDS011;57190;47.918;8.112;2022-07-11T13:50:23;1.25;;;0.70;;
69906;SDS011;57190;47.918;8.112;2022-07-11T13:52:49;11.15;;;2.03;;
69906;SDS011;57190;47.918;8.112;2022-07-11T13:55:15;2.05;;;0.70;;
69906;SDS011;57190;47.918;8.112;2022-07-11T13:57:46;0.60;;;0.50;;
69906;SDS011;57190;47.918;8.112;2022-07-11T14:00:14;0.60;;;0.52;;
69906;SDS011;57190;47.918;8.112;2022-07-11T14:02:40;0.73;;;0.70;;
69906;SDS011;57190;47.918;8.112;2022-07-11T14:05:06;0.57;;;0.57;;
69906;SDS011;57190;47.918;8.112;2022-07-11T14:07:33;0.50;;;0.50;;
69906;SDS011;57190;47.918;8.112;2022-07-11T14:09:58;0.70;;;0.57;;
69906;SDS011;57190;47.918;8.112;2022-07-11T14:12:24;1.60;;;0.60;;
69906;SDS011;57190;47.918;8.112;2022-07-11T14:14:50;0.68;;;0.50;;
69906;SDS011;57190;47.918;8.112;2022-07-11T14:17:15;0.47;;;0.47;;
69906;SDS011;57190;47.918;8.112;2022-07-11T14:19:41;0.88;;;0.60;;
69906;SDS011;57190;47.918;8.112;2022-07-11T14:22:06;0.50;;;0.50;;
69906;SDS011;57190;47.918;8.112;2022-07-11T14:24:35;0.73;;;0.60;;
69906;SDS011;57190;47.918;8.112;2022-07-11T14:27:01;0.50;;;0.50;;
69906;SDS011;57190;47.918;8.112;2022-07-11T14:29:27;0.80;;;0.50;;
69906;SDS011;57190;47.918;8.112;2022-07-11T14:31:53;0.77;;;0.52;;
69906;SDS011;57190;47.918;8.112;2022-07-11T14:34:20;0.70;;;0.70;;
69906;SDS011;57190;47.918;8.112;2022-07-11T14:36:46;0.57;;;0.57;;
69906;SDS011;57190;47.918;8.112;2022-07-11T14:39:12;0.70;;;0.60;;
69906;SDS011;57190;47.918;8.112;2022-07-11T14:41:38;1.05;;;0.50;;
69906;SDS011;57190;47.918;8.112;2022-07-11T14:44:04;0.60;;;0.60;;
69906;SDS011;57190;47.918;8.112;2022-07-11T14:46:30;0.75;;;0.75;;
69906;SDS011;57190;47.918;8.112;2022-07-11T14:48:56;1.20;;;0.50;;
69906;SDS011;57190;47.918;8.112;2022-07-11T14:51:21;0.63;;;0.40;;
69906;SDS011;57190;47.918;8.112;2022-07-11T14:53:47;0.40;;;0.40;;
69906;SDS011;57190;47.918;8.112;2022-07-11T14:56:12;1.58;;;0.60;;
69906;SDS011;57190;47.918;8.112;2022-07-11T14:58:38;0.95;;;0.50;;
69906;SDS011;57190;47.918;8.112;2022-07-11T15:01:03;1.50;;;0.50;;
69906;SDS011;57190;47.918;8.112;2022-07-11T15:03:29;0.68;;;0.68;;
69906;SDS011;57190;47.918;8.112;2022-07-11T15:06:07;0.60;;;0.60;;
69906;SDS011;57190;47.918;8.112;2022-07-11T15:08:33;0.60;;;0.60;;
69906;SDS011;57190;47.918;8.112;2022-07-11T15:11:18;0.70;;;0.50;;
69906;SDS011;57190;47.918;8.112;2022-07-11T15:14:02;0.40;;;0.40;;
69906;SDS011;57190;47.918;8.112;2022-07-11T15:16:28;0.65;;;0.50;;
69906;SDS011;57190;47.918;8.112;2022-07-11T15:18:56;0.43;;;0.40;;
69906;SDS011;57190;47.918;8.112;2022-07-11T15:21:25;1.20;;;0.60;;
69906;SDS011;57190;47.918;8.112;2022-07-11T15:23:51;0.57;;;0.57;;
69906;SDS011;57190;47.918;8.112;2022-07-11T15:26:17;0.57;;;0.57;;
69906;SDS011;57190;47.918;8.112;2022-07-11T15:28:43;0.50;;;0.50;;